NEODyS-2

Near Earth Objects - Dynamic Site
NEODyS ∴ Observatories ∴ Site 691 ∴ Obs & residuals
Contact »
691  ▹ 
OBSERVATIONS AND RESIDUALS

691-Steward Observatory, Kitt Peak-Spacewatch

Detections | Residuals | Detections & Residuals

[1-200] [201-400] [401-600] [601-800] [801-1000] [1001-1200] [1201-1400] [1401-1600] [1601-1800] [1801-2000] [2001-2200] [2201-2400] [2401-2600] [2601-2800] [2801-3000] [3001-3200] [3201-3400] [3401-3600] [3601-3800] [3801-4000] [4001-4200] [4201-4400] [4401-4600] [4601-4800] [4801-5000] [5001-5200] [5201-5400] [5401-5600] [5601-5800] [5801-6000] [6001-6200] [6201-6400] [6401-6600] [6601-6800] [6801-7000] [7001-7200] [7201-7400] [7401-7600] [7601-7800] [7801-8000] [8001-8200] [8201-8400] [8401-8600] [8601-8800] [8801-9000] [9001-9200] [9201-9400] [9401-9600] [9601-9800] [9801-10000] [10001-10200] [10201-10400] [10401-10600] [10601-10800] [10801-11000] [11001-11200] [11201-11400] [11401-11600] [11601-11800] [11801-12000] [12001-12200] [12201-12400] [12401-12600] [12601-12800] [12801-13000] [13001-13200] [13201-13400] [13401-13600] [13601-13800] [13801-14000] [14001-14200] [14201-14400] [14401-14600] [14601-14800] [14801-15000] [15001-15200] [15201-15400] [15401-15600] [15601-15800] [15801-16000] [16001-16200] [16201-16400] [16401-16600] [16601-16800] [16801-17000] [17001-17200] [17201-17400] [17401-17600] [17601-17800] [17801-18000] [18001-18200] [18201-18400] [18401-18600] [18601-18800] [18801-19000] [19001-19200] [19201-19400] [19401-19600] [19601-19800] [19801-20000] [20001-20200] [20201-20400] [20401-20600] [20601-20800] [20801-21000] [21001-21200] [21201-21400] [21401-21600] [21601-21800] [21801-22000] [22001-22200] [22201-22400] [22401-22600] [22601-22800] [22801-23000] [23001-23200] [23201-23400] [23401-23600] [23601-23800] [23801-24000] [24001-24200] [24201-24400] [24401-24600] [24601-24800] [24801-25000] [25001-25200] [25201-25400] [25401-25600] [25601-25800] [25801-26000] [26001-26200] [26201-26400] [26401-26600] [26601-26800] [26801-27000] [27001-27200] [27201-27400] [27401-27600] [27601-27800] [27801-28000] [28001-28200] [28201-28400] [28401-28600] [28601-28800] [28801-29000] [29001-29200] [29201-29400] [29401-29600] [29601-29800] [29801-30000] [30001-30200] [30201-30400] [30401-30600] [30601-30800] [30801-31000] [31001-31200] [31201-31400] [31401-31600] [31601-31800] [31801-32000] [32001-32200] [32201-32400] [32401-32600] [32601-32800] [32801-33000] [33001-33200] [33201-33400] [33401-33600] [33601-33800] [33801-34000] [34001-34200] [34201-34400] [34401-34600] [34601-34800] [34801-35000] [35001-35200] [35201-35400] [35401-35600] [35601-35800] [35801-36000] [36001-36200] [36201-36400] [36401-36600] [36601-36800] [36801-37000] [37001-37200] [37201-37400] [37401-37600] [37601-37800] [37801-38000] [38001-38200] [38201-38400] [38401-38600] [38601-38800] [38801-39000] [39001-39200] [39201-39400] [39401-39600] [39601-39800] [39801-40000] [40001-40200] [40201-40400] [40401-40600] [40601-40800] [40801-41000] [41001-41200] [41201-41400] [41401-41600] [41601-41800] [41801-42000] [42001-42200] [42201-42400] [42401-42600] [42601-42800] [42801-43000] [43001-43200] [43201-43400] [43401-43600] [43601-43800] [43801-44000] [44001-44200] [44201-44400] [44401-44600] [44601-44800] [44801-45000] [45001-45200] [45201-45400] [45401-45600] [45601-45800] [45801-46000] [46001-46200] [46201-46400] [46401-46600] [46601-46800] [46801-47000] [47001-47200] [47201-47400] [47401-47600] [47601-47800] [47801-48000] [48001-48200] [48201-48400] [48401-48600] [48601-48800] [48801-49000] [49001-49200] [49201-49400] [49401-49600] [49601-49800] [49801-50000] [50001-50200] [50201-50388]

Designation T Tech N Date Right Ascension Declination Apparent Magnitude Star Catalog Site code χ Used A Used M
yr-mo-day precision hr:min:sec precision rms F bias residual deg min sec precision rms F bias residual mag/col rms residual
2000XH44 O C 2019-10-01.24101 1.000E-05 22:33:46.770 1.500E-01 0.500 F -0.067 -0.354 -06° 33' 33.20" 1.000E-01 0.500 F 0.246 -0.470 20.3 V 0.70 0.00 o 691 1.18 Yes Yes
2019GD3 O C H 2019-10-01.24314 1.000E-05 22:38:49.830 1.500E-01 0.500 F -0.156 0.357 -12° 06' 33.40" 1.000E-01 0.500 F 0.313 0.137 20.8 R 0.70 0.25 o 691 0.76 Yes Yes
2019SU8 O C K 2019-10-01.24582 1.000E-05 23:02:38.460 1.500E-01 0.559 F -0.088 -0.348 +20° 03' 11.00" 1.000E-01 0.559 F 0.241 0.457 21.4 R 0.70 0.10 o 691 1.04 Yes Yes
2019SU8 O C K 2019-10-01.25115 1.000E-05 23:02:37.340 1.500E-01 0.559 F -0.088 -0.356 +20° 03' 11.50" 1.000E-01 0.559 F 0.241 0.372 21.4 R 0.70 0.10 o 691 0.93 Yes Yes
2019SU8 O C K 2019-10-01.26298 1.000E-05 23:02:34.860 1.500E-01 0.559 F -0.088 -0.288 +20° 03' 12.40" 1.000E-01 0.559 F 0.241 0.004 21.3 R 0.70 0.01 o 691 0.52 Yes Yes
2019SU8 O C K 2019-10-01.29628 1.000E-05 23:02:27.840 1.500E-01 0.559 F -0.088 -0.677 +20° 03' 15.60" 1.000E-01 0.559 F 0.241 -0.158 21.2 R 0.70 -0.09 o 691 1.26 Yes Yes
2019SU8 O C K 2019-10-01.32897 1.000E-05 23:02:21.040 1.500E-01 0.559 F -0.088 0.065 +20° 03' 18.80" 1.000E-01 0.559 F 0.241 0.030 21.1 R 0.70 -0.19 o 691 0.13 Yes Yes
2019SE3 O C K 2019-10-01.36097 1.000E-05 00:44:47.300 1.500E-01 0.500 F -0.355 0.117 +12° 49' 15.50" 1.000E-01 0.500 F 0.337 0.221 21.0 R 0.70 0.45 o 691 0.52 Yes Yes
2019SE3 O C K 2019-10-01.37199 1.000E-05 00:44:42.740 1.500E-01 0.500 F -0.355 0.037 +12° 49' 10.00" 1.000E-01 0.500 F 0.337 -0.018 20.8 R 0.70 0.25 o 691 0.09 Yes Yes
2019SE3 O C K 2019-10-01.38300 1.000E-05 00:44:38.170 1.500E-01 0.500 F -0.355 -0.465 +12° 49' 04.90" 1.000E-01 0.500 F 0.337 0.222 20.6 R 0.70 0.05 o 691 1.11 Yes Yes
2019SY8 O C K 2019-10-01.39462 1.000E-05 01:25:07.120 1.500E-01 0.500 F -0.272 -1.033 +14° 59' 33.90" 1.000E-01 0.500 F 0.359 -0.226 21.8 R 0.70 -0.19 o 691 2.33 Yes Yes
2019SL4 O C K 2019-10-01.40859 1.000E-05 01:07:29.300 1.500E-01 0.500 F -0.150 0.036 -07° 33' 19.40" 1.000E-01 0.500 F 0.127 -0.122 21.8 R 0.70 0.73 o 691 0.26 Yes Yes
2019SY8 O C K 2019-10-01.41499 1.000E-05 01:25:08.430 1.500E-01 0.500 F -0.272 0.834 +14° 59' 08.80" 1.000E-01 0.500 F 0.359 -0.266 22.3 R 0.70 0.31 o 691 1.92 Yes Yes
2019SL4 O C K 2019-10-01.42894 1.000E-05 01:07:27.050 1.500E-01 0.500 F -0.150 0.032 -07° 33' 34.40" 1.000E-01 0.500 F 0.127 0.062 21.8 R 0.70 0.73 o 691 0.14 Yes Yes
2019SY8 O C K 2019-10-01.43535 1.000E-05 01:25:09.610 1.500E-01 0.500 F -0.272 0.526 +14° 58' 44.10" 1.000E-01 0.500 F 0.359 0.256 22.0 R 0.70 0.01 o 691 1.28 Yes Yes
2019SL4 O C K 2019-10-01.44928 1.000E-05 01:07:24.850 1.500E-01 0.500 F -0.150 0.317 -07° 33' 49.40" 1.000E-01 0.500 F 0.127 0.131 21.8 R 0.70 0.73 o 691 0.71 Yes Yes
2018EB O C K 2019-10-02.09589 1.000E-05 18:16:37.400 1.500E-01 0.500 F 0.056 0.590 +28° 56' 33.50" 1.000E-01 0.500 F 0.243 -0.404 20.3 R 0.70 0.20 o 691 1.44 Yes Yes
2019NC1 O C K 2019-10-02.10022 1.000E-05 17:56:04.300 1.500E-01 0.500 F 0.046 0.223 +04° 25' 05.90" 1.000E-01 0.500 F 0.152 0.109 21.0 R 0.70 0.48 o 691 0.50 Yes Yes
2018EB O C K 2019-10-02.10492 1.000E-05 18:16:40.230 1.500E-01 0.500 F 0.056 0.006 +28° 55' 03.20" 1.000E-01 0.500 F 0.243 0.061 20.3 R 0.70 0.20 o 691 0.12 Yes Yes
2018EB O C K 2019-10-02.10811 1.000E-05 18:16:41.290 1.500E-01 0.500 F 0.056 0.574 +28° 54' 31.00" 1.000E-01 0.500 F 0.243 -0.040 19.9 R 0.70 -0.20 o 691 1.15 Yes Yes
2019NC1 O C K 2019-10-02.11021 1.000E-05 17:56:04.800 1.500E-01 0.500 F 0.048 0.718 +04° 25' 18.10" 1.000E-01 0.500 F 0.135 0.065 o 691 1.45 Yes No
2019NC1 O C K 2019-10-02.12013 1.000E-05 17:56:05.250 1.500E-01 0.500 F 0.048 0.441 +04° 25' 30.10" 1.000E-01 0.500 F 0.135 -0.098 o 691 0.91 Yes No
2019OQ2 O C K 2019-10-02.12543 1.000E-05 19:20:16.730 1.500E-01 0.500 F -0.084 0.202 -16° 02' 04.00" 1.000E-01 0.500 F 0.260 -0.065 20.5 R 0.70 0.04 o 691 0.44 Yes Yes
2019OQ2 O C K 2019-10-02.13477 1.000E-05 19:20:15.520 1.500E-01 0.500 F -0.084 -0.163 -16° 02' 11.60" 1.000E-01 0.500 F 0.260 -0.226 o 691 0.57 Yes No
2019OQ2 O C K 2019-10-02.14579 1.000E-05 19:20:14.160 1.500E-01 0.500 F -0.084 0.355 -16° 02' 20.20" 1.000E-01 0.500 F 0.260 -0.070 21.1 R 0.70 0.64 o 691 0.75 Yes Yes
2015OL35 O C H 2019-10-02.15534 1.000E-05 20:15:26.170 1.500E-01 0.500 F -0.004 0.968 -22° 45' 36.90" 1.000E-01 0.500 F 0.212 0.056 19.8 R 0.70 -0.22 o 691 1.94 Yes Yes
2015OL35 O C H 2019-10-02.16866 1.000E-05 20:15:25.940 1.500E-01 0.500 F -0.004 0.232 -22° 45' 39.20" 1.000E-01 0.500 F 0.212 0.096 20.1 R 0.70 0.08 o 691 0.50 Yes Yes
2015RH2 O C K 2019-10-02.17145 1.000E-05 20:10:53.040 1.500E-01 0.500 F -0.023 0.043 -11° 07' 51.90" 1.000E-01 0.500 F 0.124 0.274 22.0 R 0.70 0.94 o 691 0.56 Yes Yes
2006SE6 O C K 2019-10-02.17695 1.000E-05 20:25:51.930 1.500E-01 0.500 F -0.015 0.083 -09° 14' 49.30" 1.000E-01 0.500 F 0.251 0.182 21.5 R 0.70 1.10 o 691 0.40 Yes Yes
2015OL35 O C H 2019-10-02.18198 1.000E-05 20:15:25.750 1.500E-01 0.500 F -0.004 0.025 -22° 45' 41.50" 1.000E-01 0.500 F 0.212 0.113 20.2 R 0.70 0.18 o 691 0.23 Yes Yes
2015RH2 O C K 2019-10-02.18477 1.000E-05 20:10:52.300 1.500E-01 0.500 F -0.023 0.188 -11° 07' 42.70" 1.000E-01 0.500 F 0.124 -0.175 o 691 0.51 Yes No
2006SE6 O C K 2019-10-02.19028 1.000E-05 20:25:49.610 1.500E-01 0.500 F -0.015 -0.086 -09° 14' 46.40" 1.000E-01 0.500 F 0.251 0.182 21.5 R 0.70 1.10 o 691 0.41 Yes Yes
2019GT3 O C 2019-10-02.19845 1.000E-05 23:36:19.500 1.500E-01 0.500 F -0.115 -0.040 +06° 09' 13.70" 1.000E-01 0.500 F 0.216 -0.080 19.0 V 0.70 0.11 o 691 0.18 Yes Yes
2019GT3 O C 2019-10-02.22616 1.000E-05 23:36:22.390 1.500E-01 0.500 F -0.115 -0.131 +06° 08' 50.60" 1.000E-01 0.500 F 0.216 0.021 19.1 V 0.70 0.21 o 691 0.27 Yes Yes
2019GT3 O C 2019-10-02.25400 1.000E-05 23:36:25.280 1.500E-01 0.500 F -0.115 -0.105 +06° 08' 27.20" 1.000E-01 0.500 F 0.216 -0.007 19.1 V 0.70 0.21 o 691 0.21 Yes Yes
2014PF68 O C H 2019-10-03.09708 1.000E-05 19:58:15.120 1.500E-01 0.500 F -0.195 0.162 -06° 51' 39.80" 1.000E-01 0.500 F 0.227 0.057 18.0 R 0.70 -0.02 o 691 0.35 Yes Yes
2014PF68 O C H 2019-10-03.10767 1.000E-05 19:58:16.250 1.500E-01 0.500 F -0.195 -0.020 -06° 50' 55.10" 1.000E-01 0.500 F 0.227 -0.208 o 691 0.42 Yes No
2014PF68 O C H 2019-10-03.11820 1.000E-05 19:58:17.400 1.500E-01 0.500 F -0.195 0.191 -06° 50' 10.20" 1.000E-01 0.500 F 0.227 -0.022 18.1 R 0.70 0.08 o 691 0.39 Yes Yes
2019RX3 O C K 2019-10-03.14093 1.000E-05 00:05:23.850 1.500E-01 0.500 F -0.135 0.329 +29° 16' 54.80" 1.000E-01 0.500 F 0.232 0.086 21.7 R 0.70 0.24 o 691 0.77 Yes Yes
2019RX3 O C K 2019-10-03.17109 1.000E-05 00:05:22.160 1.500E-01 0.500 F -0.135 0.105 +29° 16' 18.20" 1.000E-01 0.500 F 0.232 0.134 21.4 R 0.70 -0.06 o 691 0.38 Yes Yes
2019RX3 O C K 2019-10-03.20123 1.000E-05 00:05:20.450 1.500E-01 0.500 F -0.135 -0.023 +29° 15' 41.30" 1.000E-01 0.500 F 0.232 0.095 21.4 R 0.70 -0.06 o 691 0.22 Yes Yes
2019TB O C K 2019-10-03.22301 1.000E-05 22:45:08.630 1.500E-01 0.500 F -0.193 -0.736 +08° 27' 31.70" 1.000E-01 0.500 F 0.233 -0.445 20.1 R 0.70 -0.10 o 691 1.76 Yes Yes
2019TB O C K 2019-10-03.23480 1.000E-05 22:45:20.380 1.500E-01 0.500 F -0.193 -0.810 +08° 27' 51.50" 1.000E-01 0.500 F 0.233 -0.323 20.3 R 0.70 0.09 o 691 1.78 Yes Yes
2019SL7 O C 2019-10-03.24170 1.000E-05 00:08:05.560 1.500E-01 0.500 F -0.062 -0.288 +08° 53' 28.30" 1.000E-01 0.500 F 0.323 -0.148 20.2 V 0.70 -0.27 o 691 0.65 Yes Yes
2019SL7 O C 2019-10-03.25271 1.000E-05 00:08:05.650 1.500E-01 0.500 F -0.062 -0.121 +08° 53' 47.10" 1.000E-01 0.500 F 0.323 0.001 20.0 V 0.70 -0.47 o 691 0.24 Yes Yes
2019SL7 O C 2019-10-03.26175 1.000E-05 00:08:05.710 1.500E-01 0.500 F -0.062 -0.110 +08° 54' 02.40" 1.000E-01 0.500 F 0.323 0.006 20.2 V 0.70 -0.26 o 691 0.22 Yes Yes
2019SQ8 O C K 2019-10-03.26870 1.000E-05 00:24:52.730 1.500E-01 0.500 F -0.292 -0.245 -04° 23' 53.10" 1.000E-01 0.500 F 0.279 0.406 21.4 R 0.70 0.02 o 691 1.02 Yes Yes
2017SL16 O C K 2019-10-03.27326 1.000E-05 00:36:57.930 1.500E-01 0.500 F -0.348 0.075 -19° 21' 09.00" 1.000E-01 0.500 F -0.002 0.847 20.4 R 0.70 0.20 o 691 1.72 Yes Yes
2007TQ24 O C H 2019-10-03.27534 1.000E-05 00:14:30.340 1.500E-01 0.500 F -0.244 -0.522 -09° 23' 24.50" 1.000E-01 0.500 F 0.284 0.251 17.9 R 0.70 0.16 o 691 1.17 Yes Yes
2019SQ8 O C K 2019-10-03.27663 1.000E-05 00:24:51.970 1.500E-01 0.500 F -0.292 0.453 -04° 23' 49.10" 1.000E-01 0.500 F 0.279 -0.201 21.5 R 0.70 0.11 o 691 1.08 Yes Yes
2017SL16 O C K 2019-10-03.28115 1.000E-05 00:36:57.120 1.500E-01 0.500 F -0.348 -0.178 -19° 21' 56.60" 1.000E-01 0.500 F -0.002 0.208 o 691 0.55 Yes No
2007TQ24 O C H 2019-10-03.28322 1.000E-05 00:14:26.070 1.500E-01 0.500 F -0.244 0.439 -09° 24' 09.20" 1.000E-01 0.500 F 0.284 0.213 17.7 R 0.70 -0.04 o 691 0.99 Yes Yes
2019SQ8 O C K 2019-10-03.28451 1.000E-05 00:24:51.110 1.500E-01 0.500 F -0.292 -0.422 -04° 23' 44.50" 1.000E-01 0.500 F 0.279 -0.181 21.9 R 0.70 0.51 o 691 1.02 Yes Yes
2017SL16 O C K 2019-10-03.28904 1.000E-05 00:36:56.350 1.500E-01 0.500 F -0.348 0.177 -19° 22' 43.70" 1.000E-01 0.500 F -0.002 -0.106 21.2 R 0.70 1.00 o 691 0.42 Yes Yes
2007TQ24 O C H 2019-10-03.29110 1.000E-05 00:14:21.690 1.500E-01 0.500 F -0.244 -0.285 -09° 24' 54.00" 1.000E-01 0.500 F 0.284 -0.005 17.8 R 0.70 0.06 o 691 0.58 Yes Yes
2019SO10 O C K 2019-10-03.29303 1.000E-05 00:58:06.200 1.500E-01 0.500 F -0.169 -0.384 -28° 04' 24.40" 1.000E-01 0.500 F 0.459 0.110 21.4 R 0.70 0.60 o 691 0.83 Yes Yes
2019SP10 O C K 2019-10-03.29615 1.000E-05 01:01:12.980 1.500E-01 0.500 F -0.343 -0.367 -15° 42' 18.80" 1.000E-01 0.500 F 0.183 -0.458 21.2 R 0.70 0.01 o 691 1.20 Yes Yes
2019SO10 O C K 2019-10-03.31095 1.000E-05 00:58:07.900 1.500E-01 0.500 F -0.169 0.224 -28° 04' 59.10" 1.000E-01 0.500 F 0.459 0.287 21.8 R 0.70 1.00 o 691 0.75 Yes Yes
2019SP10 O C K 2019-10-03.31406 1.000E-05 01:01:12.630 1.500E-01 0.500 F -0.343 0.177 -15° 42' 02.60" 1.000E-01 0.500 F 0.183 -0.476 21.4 R 0.70 0.21 o 691 1.05 Yes Yes
2019SO10 O C K 2019-10-03.32875 1.000E-05 00:58:09.520 1.500E-01 0.500 F -0.169 -0.070 -28° 05' 33.90" 1.000E-01 0.500 F 0.459 -0.007 21.5 R 0.70 0.70 o 691 0.14 Yes Yes
2019SP10 O C K 2019-10-03.33187 1.000E-05 01:01:12.240 1.500E-01 0.500 F -0.343 0.129 -15° 41' 45.90" 1.000E-01 0.500 F 0.183 0.000 21.0 R 0.70 -0.19 o 691 0.26 Yes Yes
2019SU3 O C H 2019-10-03.34608 1.000E-05 00:25:04.680 1.500E-01 0.500 F -0.157 0.188 +12° 58' 29.10" 1.000E-01 0.500 F 0.402 0.122 18.4 R 0.70 -0.01 o 691 0.45 Yes Yes
2018PK21 O C K 2019-10-03.34742 1.000E-05 00:51:27.370 1.500E-01 0.500 F -0.129 -0.039 +25° 14' 25.80" 1.000E-01 0.500 F 0.339 -0.156 21.0 R 0.70 0.30 o 691 0.33 Yes Yes
2019SU3 O C H 2019-10-03.35244 1.000E-05 00:25:06.250 1.500E-01 0.500 F -0.157 0.239 +12° 59' 03.50" 1.000E-01 0.500 F 0.402 0.023 18.6 R 0.70 0.19 o 691 0.48 Yes Yes
2018PK21 O C K 2019-10-03.35373 1.000E-05 00:51:25.450 1.500E-01 0.500 F -0.129 0.038 +25° 14' 22.90" 1.000E-01 0.500 F 0.339 -0.166 20.7 R 0.70 0.00 o 691 0.34 Yes Yes
2019SU3 O C H 2019-10-03.35875 1.000E-05 00:25:07.820 1.500E-01 0.500 F -0.157 0.216 +12° 59' 37.80" 1.000E-01 0.500 F 0.402 0.308 18.4 R 0.70 -0.01 o 691 0.76 Yes Yes
2018PK21 O C K 2019-10-03.36003 1.000E-05 00:51:23.520 1.500E-01 0.500 F -0.129 -0.106 +25° 14' 20.00" 1.000E-01 0.500 F 0.339 -0.100 21.0 R 0.70 0.30 o 691 0.30 Yes Yes
1950DA O C H 2019-10-03.36639 1.000E-05 01:20:20.590 1.500E-01 0.500 F -0.296 -0.084 +16° 51' 57.10" 1.000E-01 0.500 F 0.273 0.072 20.0 R 0.70 0.06 o 691 0.22 Yes Yes
1950DA O C H 2019-10-03.38030 1.000E-05 01:20:19.290 1.500E-01 0.500 F -0.296 0.330 +16° 51' 53.40" 1.000E-01 0.500 F 0.273 -0.169 20.0 R 0.70 0.06 o 691 0.74 Yes Yes
1950DA O C H 2019-10-03.39414 1.000E-05 01:20:17.970 1.500E-01 0.500 F -0.296 0.351 +16° 51' 50.50" 1.000E-01 0.500 F 0.273 0.386 19.9 R 0.70 -0.04 o 691 1.05 Yes Yes
2019TA O C K 2019-10-03.40797 1.000E-05 00:56:23.730 1.500E-01 0.500 F -0.243 0.265 +17° 42' 47.30" 1.000E-01 0.500 F 0.432 -0.411 21.0 R 0.70 0.20 o 691 1.07 Yes Yes
2005ST1 O C 2019-10-03.41556 1.000E-05 01:12:39.630 1.500E-01 0.500 F -0.244 -0.157 +19° 21' 43.40" 1.000E-01 0.500 F 0.305 -0.091 17.7 V 0.70 0.22 o 691 0.36 Yes Yes
2019TA O C K 2019-10-03.42022 1.000E-05 00:56:25.320 1.500E-01 0.500 F -0.243 0.550 +17° 44' 30.40" 1.000E-01 0.500 F 0.432 -0.283 21.3 R 0.70 0.49 o 691 1.35 Yes Yes
2005ST1 O C 2019-10-03.42780 1.000E-05 01:12:36.320 1.500E-01 0.500 F -0.205 -0.226 +19° 23' 21.00" 1.000E-01 0.500 F 0.359 -0.061 17.7 V 0.70 0.22 o 691 0.47 Yes Yes
2019TA O C K 2019-10-03.43245 1.000E-05 00:56:27.080 1.500E-01 0.500 F -0.243 1.644 +17° 46' 11.40" 1.000E-01 0.500 F 0.432 -0.754 21.2 R 0.70 0.38 o 691 3.33 No Yes
2005ST1 O C 2019-10-03.44004 1.000E-05 01:12:32.940 1.500E-01 0.500 F -0.205 -1.357 +19° 25' 00.00" 1.000E-01 0.500 F 0.359 1.435 17.3 V 0.70 -0.18 o 691 3.94 No Yes
2019SR10 O C K 2019-10-03.44652 1.000E-05 03:07:29.860 1.500E-01 0.500 F -0.298 -0.130 +00° 40' 22.50" 1.000E-01 0.500 F 0.295 -0.538 21.3 R 0.70 0.35 o 691 1.23 Yes Yes
2019SR10 O C K 2019-10-03.48046 1.000E-05 03:07:38.050 1.500E-01 0.500 F -0.298 0.147 +00° 42' 56.80" 1.000E-01 0.500 F 0.295 -0.393 21.2 R 0.70 0.24 o 691 0.93 Yes Yes
2014PF68 O C K 2019-10-04.09330 1.000E-05 20:00:11.740 1.500E-01 0.500 F -0.152 -0.022 -05° 41' 35.90" 1.000E-01 0.500 F 0.235 -0.010 18.0 R 0.70 -0.04 o 691 0.05 Yes Yes
2006SE6 O C 2019-10-04.10291 1.000E-05 20:21:24.770 1.500E-01 0.500 F -0.021 -0.245 -09° 08' 16.10" 1.000E-01 0.500 F 0.246 0.247 20.8 V 0.70 -0.16 o 691 0.70 Yes Yes
2014PF68 O C K 2019-10-04.10581 1.000E-05 20:00:13.130 1.500E-01 0.500 F -0.152 0.239 -05° 40' 43.50" 1.000E-01 0.500 F 0.235 -0.048 17.9 R 0.70 -0.14 o 691 0.49 Yes Yes
2015RH2 O C K 2019-10-04.10877 1.000E-05 20:09:34.190 1.500E-01 0.500 F 0.015 0.073 -10° 44' 37.40" 1.000E-01 0.500 F 0.161 -0.017 21.2 R 0.70 0.09 o 691 0.15 Yes Yes
2006SE6 O C 2019-10-04.11541 1.000E-05 20:21:22.860 1.500E-01 0.500 F -0.021 -0.708 -09° 08' 13.50" 1.000E-01 0.500 F 0.246 0.296 20.5 V 0.70 -0.47 o 691 1.56 Yes Yes
2006SE6 O C 2019-10-04.11695 1.000E-05 20:21:22.590 1.500E-01 0.500 F -0.021 -1.279 -09° 08' 13.70" 1.000E-01 0.500 F 0.246 -0.222 20.5 V 0.70 -0.47 o 691 2.65 Yes Yes
2014PF68 O C K 2019-10-04.11832 1.000E-05 20:00:14.490 1.500E-01 0.500 F -0.152 0.050 -05° 39' 50.80" 1.000E-01 0.500 F 0.235 0.212 17.9 R 0.70 -0.14 o 691 0.44 Yes Yes
2015RH2 O C K 2019-10-04.12128 1.000E-05 20:09:33.610 1.500E-01 0.500 F 0.015 0.374 -10° 44' 29.00" 1.000E-01 0.500 F 0.161 -0.715 o 691 1.62 Yes No
2014NU64 O C 2019-10-04.13117 1.000E-05 22:21:08.370 1.500E-01 0.500 F -0.178 -0.061 -10° 29' 57.60" 1.000E-01 0.500 F 0.251 -0.135 20.2 V 0.70 0.80 o 691 0.30 Yes Yes
2014XX7 O C K 2019-10-04.13346 1.000E-05 22:01:14.500 1.500E-01 0.500 F -0.109 0.191 -00° 44' 24.80" 1.000E-01 0.500 F 0.229 0.120 18.1 R 0.70 0.38 o 691 0.46 Yes Yes
2019SF2 O C 2019-10-04.13601 1.000E-05 21:49:22.550 1.500E-01 0.500 F 0.079 -0.057 +09° 01' 33.50" 1.000E-01 0.500 F 0.140 -0.157 20.7 V 0.70 -0.36 o 691 0.34 Yes Yes
2014NU64 O C 2019-10-04.13995 1.000E-05 22:21:09.360 1.500E-01 0.500 F -0.178 0.287 -10° 29' 28.00" 1.000E-01 0.500 F 0.251 -0.039 19.9 V 0.70 0.50 o 691 0.59 Yes Yes
2014NU64 O C 2019-10-04.14115 1.000E-05 22:21:09.450 1.500E-01 0.500 F -0.178 -0.330 -10° 29' 23.10" 1.000E-01 0.500 F 0.251 0.826 19.8 V 0.70 0.40 o 691 1.80 Yes Yes
2014XX7 O C K 2019-10-04.14224 1.000E-05 22:01:17.180 1.500E-01 0.500 F -0.109 0.127 -00° 45' 47.50" 1.000E-01 0.500 F 0.229 -0.072 18.1 R 0.70 0.38 o 691 0.30 Yes Yes
2019SF2 O C 2019-10-04.14694 1.000E-05 21:49:21.800 1.500E-01 0.500 F 0.079 -0.457 +09° 01' 36.10" 1.000E-01 0.500 F 0.140 -0.360 20.7 V 0.70 -0.36 o 691 1.17 Yes Yes
2014XX7 O C K 2019-10-04.15101 1.000E-05 22:01:19.860 1.500E-01 0.500 F -0.109 0.139 -00° 47' 09.30" 1.000E-01 0.500 F 0.229 0.527 o 691 1.10 Yes No
2019SF2 O C 2019-10-04.15571 1.000E-05 21:49:21.200 1.500E-01 0.500 F 0.079 -0.722 +09° 01' 39.10" 1.000E-01 0.500 F 0.140 0.414 21.4 V 0.70 0.34 o 691 1.67 Yes Yes
2019FV2 O C K 2019-10-04.16533 1.000E-05 22:04:39.430 1.500E-01 0.500 F -0.155 -0.300 -15° 06' 33.40" 1.000E-01 0.500 F 0.220 -0.130 21.1 R 0.70 0.39 o 691 0.67 Yes Yes
2019FV2 O C K 2019-10-04.17624 1.000E-05 22:04:39.220 1.500E-01 0.500 F -0.077 -0.152 -15° 05' 56.20" 1.000E-01 0.500 F 0.252 -0.210 o 691 0.54 Yes No
2019FV2 O C K 2019-10-04.18714 1.000E-05 22:04:39.020 1.500E-01 0.500 F -0.077 0.261 -15° 05' 19.10" 1.000E-01 0.500 F 0.252 -0.430 20.9 R 0.70 0.19 o 691 1.04 Yes Yes
2019GT3 O C 2019-10-04.19229 1.000E-05 23:40:00.630 1.500E-01 0.500 F -0.189 -0.187 +05° 43' 04.10" 1.000E-01 0.500 F 0.268 0.188 19.1 V 0.70 0.00 o 691 0.53 Yes Yes
2019TB O C K 2019-10-04.19366 1.000E-05 23:01:40.470 1.500E-01 0.500 F -0.010 1.105 +08° 50' 42.80" 1.000E-01 0.500 F 0.168 0.627 20.5 R 0.70 0.17 o 691 2.61 Yes Yes
2019GT3 O C 2019-10-04.20026 1.000E-05 23:40:01.450 1.500E-01 0.500 F -0.189 1.054 +05° 42' 56.70" 1.000E-01 0.500 F 0.268 -1.441 18.8 V 0.70 -0.30 o 691 3.56 No Yes
2019TB O C K 2019-10-04.20163 1.000E-05 23:01:46.890 1.500E-01 0.500 F -0.010 -0.037 +08° 50' 52.10" 1.000E-01 0.500 F 0.168 -0.250 20.4 R 0.70 0.07 o 691 0.51 Yes Yes
2019GT3 O C 2019-10-04.20823 1.000E-05 23:40:02.110 1.500E-01 0.500 F -0.189 -0.059 +05° 42' 52.70" 1.000E-01 0.500 F 0.268 0.333 19.1 V 0.70 0.00 o 691 0.68 Yes Yes
2019TB O C K 2019-10-04.20960 1.000E-05 23:01:53.310 1.500E-01 0.500 F -0.010 -0.896 +08° 51' 03.00" 1.000E-01 0.500 F 0.168 0.596 19.3 R 0.70 -1.03 o 691 2.20 Yes Yes
Cuno O C 2019-10-04.45021 1.000E-05 00:30:17.170 1.500E-01 0.500 F -0.189 -0.262 +14° 05' 00.80" 1.000E-01 0.500 F 0.337 -0.022 18.6 V 0.70 0.40 o 691 0.53 Yes Yes
2019SU3 O C 2019-10-04.45021 1.000E-05 00:32:23.020 1.500E-01 0.500 F -0.189 -0.335 +14° 31' 38.50" 1.000E-01 0.500 F 0.337 0.193 19.4 V 0.70 0.34 o 691 0.78 Yes Yes
1950DA O C 2019-10-04.45171 1.000E-05 01:18:38.920 1.500E-01 0.500 F -0.344 0.053 +16° 47' 22.50" 1.000E-01 0.500 F 0.218 -0.187 20.5 V 0.70 0.18 o 691 0.39 Yes Yes
2019SU3 O C 2019-10-04.45544 1.000E-05 00:32:24.430 1.500E-01 0.500 F -0.189 -0.159 +14° 31' 59.10" 1.000E-01 0.500 F 0.337 -0.063 19.2 V 0.70 0.14 o 691 0.34 Yes Yes
Cuno O C 2019-10-04.45544 1.000E-05 00:30:16.800 1.500E-01 0.500 F -0.189 0.035 +14° 04' 58.60" 1.000E-01 0.500 F 0.337 0.001 18.7 V 0.70 0.50 o 691 0.07 Yes Yes
1950DA O C 2019-10-04.45693 1.000E-05 01:18:38.390 1.500E-01 0.500 F -0.344 -0.406 +16° 47' 21.10" 1.000E-01 0.500 F 0.218 -0.202 20.0 V 0.70 -0.32 o 691 0.91 Yes Yes
2019SU3 O C 2019-10-04.46067 1.000E-05 00:32:25.860 1.500E-01 0.500 F -0.189 -0.087 +14° 32' 19.70" 1.000E-01 0.500 F 0.337 -0.229 19.3 V 0.70 0.24 o 691 0.49 Yes Yes
Cuno O C 2019-10-04.46067 1.000E-05 00:30:16.400 1.500E-01 0.500 F -0.189 -0.109 +14° 04' 56.40" 1.000E-01 0.500 F 0.337 0.025 18.6 V 0.70 0.40 o 691 0.22 Yes Yes
1950DA O C 2019-10-04.46216 1.000E-05 01:18:37.910 1.500E-01 0.500 F -0.344 -0.138 +16° 47' 19.70" 1.000E-01 0.500 F 0.218 -0.212 20.2 V 0.70 -0.12 o 691 0.51 Yes Yes
2019SL7 O C K 2019-10-05.11944 1.000E-05 00:10:46.720 1.500E-01 0.500 F -0.008 -0.035 +10° 06' 42.10" 1.000E-01 0.500 F 0.248 0.056 19.4 R 0.70 0.08 o 691 0.13 Yes Yes
2019SL7 O C K 2019-10-05.12291 1.000E-05 00:10:46.990 1.500E-01 0.500 F -0.008 -0.246 +10° 06' 54.00" 1.000E-01 0.500 F 0.248 -0.089 19.3 R 0.70 -0.02 o 691 0.53 Yes Yes
2019SL7 O C K 2019-10-05.12638 1.000E-05 00:10:47.290 1.500E-01 0.500 F -0.008 0.045 +10° 07' 06.10" 1.000E-01 0.500 F 0.248 -0.046 20.0 R 0.70 0.68 o 691 0.13 Yes Yes
2019SU3 O C 2019-10-05.13028 1.000E-05 00:37:17.070 1.500E-01 0.500 F -0.217 -0.143 +15° 20' 22.80" 1.000E-01 0.500 F 0.263 0.165 19.2 R 0.70 0.40 o 691 0.44 Yes Yes
2019SU3 O C 2019-10-05.13527 1.000E-05 00:37:18.290 1.500E-01 0.500 F -0.217 -0.039 +15° 20' 45.90" 1.000E-01 0.500 F 0.263 -0.059 19.3 R 0.70 0.50 o 691 0.14 Yes Yes
2019SU3 O C 2019-10-05.14027 1.000E-05 00:37:19.480 1.500E-01 0.500 F -0.217 -0.029 +15° 21' 09.10" 1.000E-01 0.500 F 0.263 -0.154 19.1 R 0.70 0.29 o 691 0.31 Yes Yes
2019SQ8 O C K 2019-10-05.17704 1.000E-05 00:22:10.590 1.500E-01 0.500 F -0.268 0.133 -04° 06' 03.30" 1.000E-01 0.500 F 0.296 0.079 21.8 R 0.70 0.20 o 691 0.33 Yes Yes
2019SQ8 O C K 2019-10-05.18871 1.000E-05 00:22:09.570 1.500E-01 0.500 F -0.268 0.026 -04° 05' 57.30" 1.000E-01 0.500 F 0.296 -0.150 22.2 R 0.70 0.60 o 691 0.33 Yes Yes
2019SQ8 O C K 2019-10-05.20038 1.000E-05 00:22:08.550 1.500E-01 0.500 F -0.268 -0.023 -04° 05' 50.70" 1.000E-01 0.500 F 0.296 0.217 21.9 R 0.70 0.29 o 691 0.47 Yes Yes
2019RU2 O C K 2019-10-05.21557 1.000E-05 01:35:09.010 1.500E-01 0.500 F -0.222 -0.048 +23° 50' 50.20" 1.000E-01 0.500 F 0.363 -0.046 20.1 R 0.70 -0.28 o 691 0.14 Yes Yes
2019RU2 O C K 2019-10-05.22075 1.000E-05 01:35:10.180 1.500E-01 0.500 F -0.222 -0.163 +23° 51' 08.10" 1.000E-01 0.500 F 0.363 0.273 20.1 R 0.70 -0.28 o 691 0.65 Yes Yes
2019RU2 O C K 2019-10-05.22593 1.000E-05 01:35:11.340 1.500E-01 0.500 F -0.222 -0.365 +23° 51' 25.30" 1.000E-01 0.500 F 0.363 -0.082 20.2 R 0.70 -0.18 o 691 0.77 Yes Yes
2001TO48 O C 2019-10-05.32479 1.000E-05 03:44:27.720 1.500E-01 0.500 F -0.482 -0.465 +00° 13' 24.10" 1.000E-01 0.500 F 0.269 1.260 19.9 V 0.70 -0.21 o 691 2.70 Yes Yes
2001TO48 O C 2019-10-05.32937 1.000E-05 03:44:27.250 1.500E-01 0.500 F -0.482 1.445 +00° 13' 20.30" 1.000E-01 0.500 F 0.269 0.857 19.5 V 0.70 -0.61 o 691 3.34 No Yes
2001TO48 O C 2019-10-05.33395 1.000E-05 03:44:26.550 1.500E-01 0.500 F -0.482 -0.086 +00° 13' 16.10" 1.000E-01 0.500 F 0.269 0.055 19.9 V 0.70 -0.21 o 691 0.20 Yes Yes
2019SB11 O C K 2019-10-05.33781 1.000E-05 01:15:09.280 1.500E-01 0.500 F -0.263 -8.497 +19° 16' 09.70" 1.000E-01 0.500 F 0.411 -3.295 21.7 R 0.70 0.03 o 691 12.88 No Yes
2019SB11 O C K 2019-10-05.35761 1.000E-05 01:15:07.550 1.500E-01 0.500 F -0.263 -9.746 +19° 16' 01.20" 1.000E-01 0.500 F 0.411 -4.131 o 691 15.00 No No
2019SB11 O C K 2019-10-05.37738 1.000E-05 01:15:05.980 1.500E-01 0.500 F -0.263 -8.791 +19° 15' 54.50" 1.000E-01 0.500 F 0.411 -3.133 22.0 R 0.70 0.33 o 691 13.15 No Yes
2009SP O C K 2019-10-05.46316 1.000E-05 03:10:17.350 1.500E-01 0.500 F -0.256 0.274 -17° 36' 18.80" 1.000E-01 0.500 F 0.062 0.083 18.3 R 0.70 -0.50 o 691 0.58 Yes Yes
2009SP O C K 2019-10-05.46595 1.000E-05 03:10:17.800 1.500E-01 0.500 F -0.256 0.098 -17° 36' 31.60" 1.000E-01 0.500 F 0.062 0.129 18.2 R 0.70 -0.60 o 691 0.33 Yes Yes
2009SP O C K 2019-10-05.47015 1.000E-05 03:10:18.510 1.500E-01 0.500 F -0.256 0.294 -17° 36' 51.20" 1.000E-01 0.500 F 0.062 -0.135 18.4 R 0.70 -0.40 o 691 0.65 Yes Yes
2019TH2 O C K 2019-10-06.16382 1.000E-05 00:07:41.150 1.500E-01 0.500 F -0.253 -8.543 -15° 43' 58.40" 1.000E-01 0.500 F 0.228 -24.213 20.2 R 0.70 0.00 o 691 50.70 No Yes
2019TH2 O C K 2019-10-06.17376 1.000E-05 00:07:44.480 1.500E-01 0.500 F -0.253 -0.708 -15° 41' 29.80" 1.000E-01 0.500 F 0.228 0.001 20.1 R 0.70 -0.09 o 691 1.46 Yes Yes
2019TH2 O C K 2019-10-06.18373 1.000E-05 00:07:47.310 1.500E-01 0.500 F -0.253 0.160 -15° 39' 24.70" 1.000E-01 0.500 F 0.228 -0.064 20.2 R 0.70 0.01 o 691 0.36 Yes Yes
2019TE2 O C K 2019-10-06.19449 1.000E-05 00:30:47.730 1.500E-01 0.500 F -0.249 1.295 -13° 27' 30.90" 1.000E-01 0.500 F 0.373 0.745 20.2 R 0.70 -0.24 o 691 3.05 Yes Yes
2019TE2 O C K 2019-10-06.20596 1.000E-05 00:30:50.780 1.500E-01 0.500 F -0.249 1.761 -13° 27' 12.30" 1.000E-01 0.500 F 0.373 0.928 20.9 R 0.70 0.46 o 691 3.91 No Yes
2019TE2 O C K 2019-10-06.21745 1.000E-05 00:30:53.820 1.500E-01 0.500 F -0.249 2.198 -13° 26' 53.50" 1.000E-01 0.500 F 0.373 1.128 20.8 R 0.70 0.36 o 691 4.85 No Yes
2019TQ2 O C K 2019-10-06.23363 1.000E-05 00:43:15.370 1.500E-01 0.500 F -0.386 -0.138 -09° 41' 07.80" 1.000E-01 0.500 F 0.135 -0.438 22.0 R 0.70 0.56 o 691 0.93 Yes Yes
2019TQ2 O C K 2019-10-06.25039 1.000E-05 00:43:15.390 1.500E-01 0.500 F -0.386 -0.326 -09° 40' 33.40" 1.000E-01 0.500 F 0.135 -0.088 21.9 R 0.70 0.46 o 691 0.68 Yes Yes
2019TQ2 O C K 2019-10-06.26715 1.000E-05 00:43:15.430 1.500E-01 0.500 F -0.386 -0.044 -09° 39' 59.30" 1.000E-01 0.500 F 0.135 -0.197 21.1 R 0.70 -0.34 o 691 0.41 Yes Yes
2019SF1 O C K 2019-10-06.32396 1.000E-05 00:22:03.960 1.500E-01 0.500 F -0.174 0.320 +08° 14' 04.80" 1.000E-01 0.500 F 0.383 0.051 21.8 R 0.70 0.17 o 691 0.69 Yes Yes
2019SF1 O C K 2019-10-06.33850 1.000E-05 00:22:03.620 1.500E-01 0.500 F -0.174 -0.060 +08° 14' 08.60" 1.000E-01 0.500 F 0.383 -0.005 21.3 R 0.70 -0.33 o 691 0.13 Yes Yes
2019SF1 O C K 2019-10-06.35302 1.000E-05 00:22:03.340 1.500E-01 0.500 F -0.174 0.230 +08° 14' 12.20" 1.000E-01 0.500 F 0.383 -0.163 21.8 R 0.70 0.17 o 691 0.60 Yes Yes
2019SU3 O C 2019-10-07.13300 1.000E-05 00:47:03.540 1.500E-01 0.500 F -0.215 -0.310 +17° 14' 52.60" 1.000E-01 0.500 F 0.362 -0.214 19.4 R 0.70 0.22 o 691 0.76 Yes Yes
2019SU3 O C 2019-10-07.13414 1.000E-05 00:47:03.760 1.500E-01 0.500 F -0.215 0.001 +17° 14' 56.70" 1.000E-01 0.500 F 0.362 -0.089 19.3 R 0.70 0.12 o 691 0.18 Yes Yes
2019SU3 O C 2019-10-07.13867 1.000E-05 00:47:04.540 1.500E-01 0.500 F -0.215 0.053 +17° 15' 12.40" 1.000E-01 0.500 F 0.362 -0.148 19.5 R 0.70 0.32 o 691 0.32 Yes Yes
2018PK21 O C K 2019-10-07.14422 1.000E-05 00:35:11.550 1.500E-01 0.500 F -0.109 -0.109 +24° 39' 03.30" 1.000E-01 0.500 F 0.310 -0.321 20.3 R 0.70 -0.27 o 691 0.69 Yes Yes
2018PK21 O C K 2019-10-07.15602 1.000E-05 00:35:08.010 1.500E-01 0.500 F -0.109 -0.300 +24° 38' 57.50" 1.000E-01 0.500 F 0.310 -0.502 20.2 R 0.70 -0.37 o 691 1.19 Yes Yes
2018PK21 O C K 2019-10-07.16781 1.000E-05 00:35:04.460 1.500E-01 0.500 F -0.109 -0.165 +24° 38' 52.10" 1.000E-01 0.500 F 0.310 -0.094 20.6 R 0.70 0.03 o 691 0.39 Yes Yes
2019TR2 O C K 2019-10-07.24780 1.000E-05 00:48:21.470 1.500E-01 0.500 F -0.376 -0.516 -14° 02' 11.90" 1.000E-01 0.500 F 0.251 0.406 21.0 R 0.70 0.38 o 691 1.32 Yes Yes
2019TR2 O C K 2019-10-07.25446 1.000E-05 00:48:20.400 1.500E-01 0.500 F -0.376 0.111 -14° 02' 06.50" 1.000E-01 0.500 F 0.251 0.063 21.2 R 0.70 0.58 o 691 0.26 Yes Yes
2019TR2 O C K 2019-10-07.26110 1.000E-05 00:48:19.260 1.500E-01 0.500 F -0.376 -0.299 -14° 02' 00.20" 1.000E-01 0.500 F 0.251 0.615 20.7 R 0.70 0.08 o 691 1.38 Yes Yes
2019QU39 O C 2019-10-07.28193 1.000E-05 02:40:41.230 1.500E-01 0.500 F -0.182 -0.270 +06° 07' 58.40" 1.000E-01 0.500 F 0.266 -0.398 20.7 V 0.70 -0.28 o 691 0.99 Yes Yes
2019QU39 O C 2019-10-07.29077 1.000E-05 02:40:40.620 1.500E-01 0.500 F -0.182 -0.107 +06° 08' 01.40" 1.000E-01 0.500 F 0.266 -0.013 20.6 V 0.70 -0.38 o 691 0.22 Yes Yes
2019QU39 O C 2019-10-07.29961 1.000E-05 02:40:39.980 1.500E-01 0.500 F -0.182 -0.362 +06° 08' 04.10" 1.000E-01 0.500 F 0.266 0.076 20.7 V 0.70 -0.28 o 691 0.77 Yes Yes
2019TW3 O C K 2019-10-07.30229 1.000E-05 03:27:33.500 1.500E-01 0.500 F -0.444 -0.225 -11° 42' 26.90" 1.000E-01 0.500 F 0.177 -0.334 20.5 R 0.70 -0.44 o 691 0.82 Yes Yes
2019TW3 O C K 2019-10-07.30798 1.000E-05 03:27:34.040 1.500E-01 0.500 F -0.444 -0.040 -11° 42' 21.40" 1.000E-01 0.500 F 0.177 0.267 20.7 R 0.70 -0.24 o 691 0.55 Yes Yes
2019TW3 O C K 2019-10-07.31367 1.000E-05 03:27:34.580 1.500E-01 0.500 F -0.444 0.170 -11° 42' 16.70" 1.000E-01 0.500 F 0.177 0.061 o 691 0.37 Yes No
2014ER49 O C K 2019-10-07.47617 1.000E-05 02:02:46.350 1.500E-01 0.500 F -0.412 -0.429 -11° 39' 52.10" 1.000E-01 0.500 F 0.280 -0.306 21.5 R 0.70 0.00 o 691 1.07 Yes Yes
2014ER49 O C K 2019-10-07.48686 1.000E-05 02:02:45.530 1.500E-01 0.500 F -0.412 -0.100 -11° 39' 55.30" 1.000E-01 0.500 F 0.280 0.136 21.4 R 0.70 -0.10 o 691 0.34 Yes Yes
2014ER49 O C K 2019-10-07.49754 1.000E-05 02:02:44.690 1.500E-01 0.500 F -0.412 -0.093 -11° 39' 59.00" 1.000E-01 0.500 F 0.280 0.070 22.2 R 0.70 0.70 o 691 0.23 Yes Yes
2019RU2 O C K 2019-10-07.51222 1.000E-05 01:44:25.680 1.500E-01 0.500 F -0.148 0.464 +25° 50' 03.80" 1.000E-01 0.500 F 0.351 -0.105 20.2 R 0.70 -0.26 o 691 0.98 Yes Yes
2011UA131 O C 2019-10-07.51222 1.000E-05 01:39:54.670 1.500E-01 0.500 F -0.180 -0.117 +26° 16' 24.00" 1.000E-01 0.500 F 0.331 0.063 19.4 V 0.70 0.30 o 691 0.27 Yes Yes
2019RU2 O C K 2019-10-07.51610 1.000E-05 01:44:26.500 1.500E-01 0.500 F -0.148 -0.352 +25° 50' 14.70" 1.000E-01 0.500 F 0.351 -0.051 20.3 R 0.70 -0.16 o 691 0.73 Yes Yes
2011UA131 O C 2019-10-07.51740 1.000E-05 01:39:54.250 1.500E-01 0.500 F -0.180 -0.127 +26° 16' 12.40" 1.000E-01 0.500 F 0.331 -0.221 19.4 V 0.70 0.30 o 691 0.51 Yes Yes
2019RU2 O C K 2019-10-07.51999 1.000E-05 01:44:27.420 1.500E-01 0.500 F -0.148 0.117 +25° 50' 25.20" 1.000E-01 0.500 F 0.351 -0.416 20.7 R 0.70 0.24 o 691 0.89 Yes Yes
2011UA131 O C 2019-10-07.52258 1.000E-05 01:39:53.830 1.500E-01 0.500 F -0.180 -0.148 +26° 16' 01.30" 1.000E-01 0.500 F 0.331 -0.003 19.1 V 0.70 0.00 o 691 0.30 Yes Yes
2019SU3 O C 2019-10-08.14122 1.000E-05 00:51:03.600 1.500E-01 0.500 F -0.251 0.114 +17° 59' 48.40" 1.000E-01 0.500 F 0.363 -0.240 19.7 R 0.70 0.35 o 691 0.54 Yes Yes
2019SU3 O C 2019-10-08.14688 1.000E-05 00:51:04.430 1.500E-01 0.500 F -0.251 0.662 +18° 00' 05.80" 1.000E-01 0.500 F 0.363 0.072 19.3 R 0.70 -0.05 o 691 1.34 Yes Yes
2019SU3 O C 2019-10-08.15253 1.000E-05 00:51:05.120 1.500E-01 0.500 F -0.251 -0.404 +18° 00' 23.00" 1.000E-01 0.500 F 0.363 0.305 19.4 R 0.70 0.05 o 691 1.02 Yes Yes
2019RU2 O C K 2019-10-08.17267 1.000E-05 01:47:12.480 1.500E-01 0.500 F -0.137 0.136 +26° 22' 08.80" 1.000E-01 0.500 F 0.331 -0.310 20.2 R 0.70 -0.29 o 691 0.69 Yes Yes
2019RU2 O C K 2019-10-08.19064 1.000E-05 01:47:16.450 1.500E-01 0.500 F -0.137 0.130 +26° 23' 03.50" 1.000E-01 0.500 F 0.331 0.107 20.3 R 0.70 -0.19 o 691 0.35 Yes Yes
2019RU2 O C K 2019-10-08.21128 1.000E-05 01:47:20.910 1.500E-01 0.500 F -0.137 -0.362 +26° 24' 05.30" 1.000E-01 0.500 F 0.331 -0.109 20.3 R 0.70 -0.19 o 691 0.78 Yes Yes
2019TF2 O C K 2019-10-08.37555 1.000E-05 00:38:14.980 1.500E-01 0.500 F -0.339 -0.365 -12° 57' 00.50" 1.000E-01 0.500 F 0.125 0.043 21.3 R 0.70 0.37 o 691 0.74 Yes Yes
2019TF2 O C K 2019-10-08.38390 1.000E-05 00:38:13.900 1.500E-01 0.500 F -0.339 -0.065 -12° 57' 31.70" 1.000E-01 0.500 F 0.125 0.023 21.4 R 0.70 0.47 o 691 0.14 Yes Yes
2019TF2 O C K 2019-10-08.39223 1.000E-05 00:38:12.800 1.500E-01 0.500 F -0.339 -0.296 -12° 58' 02.90" 1.000E-01 0.500 F 0.125 -0.140 o 691 0.66 Yes No
2019TP5 O C K 2019-10-08.40148 1.000E-05 00:07:52.720 1.500E-01 0.500 F -0.127 0.750 +19° 37' 37.40" 1.000E-01 0.500 F 0.137 0.002 21.1 R 0.70 0.16 o 691 1.53 Yes Yes
2019TP5 O C K 2019-10-08.40800 1.000E-05 00:07:50.770 1.500E-01 0.500 F -0.127 0.917 +19° 37' 31.20" 1.000E-01 0.500 F 0.137 0.080 21.8 R 0.70 0.87 o 691 1.88 Yes Yes
2019TP5 O C K 2019-10-08.41453 1.000E-05 00:07:48.770 1.500E-01 0.500 F -0.127 0.366 +19° 37' 24.00" 1.000E-01 0.500 F 0.137 -0.796 21.8 R 0.70 0.87 o 691 1.77 Yes Yes
2001TO48 O C 2019-10-09.40441 1.000E-05 03:35:44.190 1.500E-01 0.500 F -0.343 0.032 -00° 34' 27.40" 1.000E-01 0.500 F 0.240 -0.305 20.1 V 0.70 -0.01 o 691 0.62 Yes Yes
2001TO48 O C 2019-10-09.41200 1.000E-05 03:35:43.130 1.500E-01 0.500 F -0.343 -0.131 -00° 34' 32.40" 1.000E-01 0.500 F 0.240 -0.275 19.9 V 0.70 -0.21 o 691 0.61 Yes Yes
2001TO48 O C 2019-10-09.41960 1.000E-05 03:35:42.100 1.500E-01 0.500 F -0.343 0.178 -00° 34' 37.50" 1.000E-01 0.500 F 0.240 -0.340 20.1 V 0.70 -0.01 o 691 0.77 Yes Yes
2019SK7 O C K 2019-10-10.15874 1.000E-05 00:51:49.070 1.500E-01 0.500 F -0.152 0.015 +06° 27' 25.80" 1.000E-01 0.500 F 0.255 0.066 19.9 R 0.70 0.44 o 691 0.14 Yes Yes
2019SK7 O C K 2019-10-10.17678 1.000E-05 00:51:45.770 1.500E-01 0.500 F -0.152 -0.675 +06° 25' 35.50" 1.000E-01 0.500 F 0.255 0.433 19.6 R 0.70 0.14 o 691 1.63 Yes Yes
2019SK7 O C K 2019-10-10.19482 1.000E-05 00:51:42.490 1.500E-01 0.500 F -0.152 -0.700 +06° 23' 44.50" 1.000E-01 0.500 F 0.255 0.188 19.8 R 0.70 0.34 o 691 1.47 Yes Yes
2019NJ5 O C 2019-10-10.21491 1.000E-05 01:50:25.710 1.500E-01 0.500 F -0.313 -0.357 -12° 55' 41.10" 1.000E-01 0.500 F 0.263 0.035 20.0 V 0.70 0.56 o 691 0.73 Yes Yes
2019NJ5 O C 2019-10-10.22895 1.000E-05 01:50:27.560 1.500E-01 0.500 F -0.313 -0.147 -12° 55' 30.80" 1.000E-01 0.500 F 0.263 0.242 20.0 V 0.70 0.56 o 691 0.58 Yes Yes
2019NJ5 O C 2019-10-10.24134 1.000E-05 01:50:29.150 1.500E-01 0.500 F -0.313 -0.262 -12° 55' 22.20" 1.000E-01 0.500 F 0.263 -0.155 20.6 V 0.70 1.15 o 691 0.62 Yes Yes
2019TK5 O C K 2019-10-10.45140 1.000E-05 01:54:09.290 1.500E-01 0.500 F -0.117 -0.005 +27° 49' 22.90" 1.000E-01 0.500 F 0.220 -0.691 20.8 R 0.70 0.25 o 691 1.40 Yes Yes
2019TK5 O C K 2019-10-10.45761 1.000E-05 01:54:09.830 1.500E-01 0.500 F -0.117 -0.247 +27° 49' 48.10" 1.000E-01 0.500 F 0.220 -0.213 21.0 R 0.70 0.45 o 691 0.66 Yes Yes
2019LX4 O C K 2019-10-11.12543 1.000E-05 20:30:24.490 1.500E-01 0.500 F 0.023 0.077 +06° 51' 06.70" 1.000E-01 0.500 F 0.287 0.018 19.4 R 0.70 0.22 o 691 0.16 Yes Yes
2019LX4 O C K 2019-10-11.13335 1.000E-05 20:30:28.380 1.500E-01 0.500 F 0.023 0.074 +06° 51' 18.10" 1.000E-01 0.500 F 0.287 -0.070 19.4 R 0.70 0.22 o 691 0.21 Yes Yes
2014PF68 O C K 2019-10-11.14584 1.000E-05 20:14:43.970 1.500E-01 0.500 F -0.030 -0.136 +02° 06' 08.30" 1.000E-01 0.500 F 0.069 0.211 18.8 R 0.70 0.60 o 691 0.51 Yes Yes
2014PF68 O C K 2019-10-11.14895 1.000E-05 20:14:44.380 1.500E-01 0.500 F -0.030 0.329 +02° 06' 19.80" 1.000E-01 0.500 F 0.069 0.043 18.1 R 0.70 -0.10 o 691 0.67 Yes Yes
2019SU3 O C K 2019-10-11.15758 1.000E-05 01:00:29.850 1.500E-01 0.500 F -0.162 -0.430 +19° 39' 30.70" 1.000E-01 0.500 F 0.419 -0.076 20.4 R 0.70 0.61 o 691 0.88 Yes Yes
2019SU3 O C K 2019-10-11.16757 1.000E-05 01:00:30.550 1.500E-01 0.500 F -0.162 -1.133 +19° 39' 51.20" 1.000E-01 0.500 F 0.419 0.155 20.3 R 0.70 0.51 o 691 2.31 Yes Yes
2019SU3 O C K 2019-10-11.17757 1.000E-05 01:00:31.210 1.500E-01 0.500 F -0.162 -1.576 +19° 40' 10.80" 1.000E-01 0.500 F 0.419 -0.251 20.0 R 0.70 0.21 o 691 3.16 No Yes

[1-200] [201-400] [401-600] [601-800] [801-1000] [1001-1200] [1201-1400] [1401-1600] [1601-1800] [1801-2000] [2001-2200] [2201-2400] [2401-2600] [2601-2800] [2801-3000] [3001-3200] [3201-3400] [3401-3600] [3601-3800] [3801-4000] [4001-4200] [4201-4400] [4401-4600] [4601-4800] [4801-5000] [5001-5200] [5201-5400] [5401-5600] [5601-5800] [5801-6000] [6001-6200] [6201-6400] [6401-6600] [6601-6800] [6801-7000] [7001-7200] [7201-7400] [7401-7600] [7601-7800] [7801-8000] [8001-8200] [8201-8400] [8401-8600] [8601-8800] [8801-9000] [9001-9200] [9201-9400] [9401-9600] [9601-9800] [9801-10000] [10001-10200] [10201-10400] [10401-10600] [10601-10800] [10801-11000] [11001-11200] [11201-11400] [11401-11600] [11601-11800] [11801-12000] [12001-12200] [12201-12400] [12401-12600] [12601-12800] [12801-13000] [13001-13200] [13201-13400] [13401-13600] [13601-13800] [13801-14000] [14001-14200] [14201-14400] [14401-14600] [14601-14800] [14801-15000] [15001-15200] [15201-15400] [15401-15600] [15601-15800] [15801-16000] [16001-16200] [16201-16400] [16401-16600] [16601-16800] [16801-17000] [17001-17200] [17201-17400] [17401-17600] [17601-17800] [17801-18000] [18001-18200] [18201-18400] [18401-18600] [18601-18800] [18801-19000] [19001-19200] [19201-19400] [19401-19600] [19601-19800] [19801-20000] [20001-20200] [20201-20400] [20401-20600] [20601-20800] [20801-21000] [21001-21200] [21201-21400] [21401-21600] [21601-21800] [21801-22000] [22001-22200] [22201-22400] [22401-22600] [22601-22800] [22801-23000] [23001-23200] [23201-23400] [23401-23600] [23601-23800] [23801-24000] [24001-24200] [24201-24400] [24401-24600] [24601-24800] [24801-25000] [25001-25200] [25201-25400] [25401-25600] [25601-25800] [25801-26000] [26001-26200] [26201-26400] [26401-26600] [26601-26800] [26801-27000] [27001-27200] [27201-27400] [27401-27600] [27601-27800] [27801-28000] [28001-28200] [28201-28400] [28401-28600] [28601-28800] [28801-29000] [29001-29200] [29201-29400] [29401-29600] [29601-29800] [29801-30000] [30001-30200] [30201-30400] [30401-30600] [30601-30800] [30801-31000] [31001-31200] [31201-31400] [31401-31600] [31601-31800] [31801-32000] [32001-32200] [32201-32400] [32401-32600] [32601-32800] [32801-33000] [33001-33200] [33201-33400] [33401-33600] [33601-33800] [33801-34000] [34001-34200] [34201-34400] [34401-34600] [34601-34800] [34801-35000] [35001-35200] [35201-35400] [35401-35600] [35601-35800] [35801-36000] [36001-36200] [36201-36400] [36401-36600] [36601-36800] [36801-37000] [37001-37200] [37201-37400] [37401-37600] [37601-37800] [37801-38000] [38001-38200] [38201-38400] [38401-38600] [38601-38800] [38801-39000] [39001-39200] [39201-39400] [39401-39600] [39601-39800] [39801-40000] [40001-40200] [40201-40400] [40401-40600] [40601-40800] [40801-41000] [41001-41200] [41201-41400] [41401-41600] [41601-41800] [41801-42000] [42001-42200] [42201-42400] [42401-42600] [42601-42800] [42801-43000] [43001-43200] [43201-43400] [43401-43600] [43601-43800] [43801-44000] [44001-44200] [44201-44400] [44401-44600] [44601-44800] [44801-45000] [45001-45200] [45201-45400] [45401-45600] [45601-45800] [45801-46000] [46001-46200] [46201-46400] [46401-46600] [46601-46800] [46801-47000] [47001-47200] [47201-47400] [47401-47600] [47601-47800] [47801-48000] [48001-48200] [48201-48400] [48401-48600] [48601-48800] [48801-49000] [49001-49200] [49201-49400] [49401-49600] [49601-49800] [49801-50000] [50001-50200] [50201-50388]